sensor_id;sensor_type;location;lat;lon;timestamp;pressure;altitude;pressure_sealevel;temperature;humidity
54266;BME280;40836;39.770;2.714;2022-11-20T00:00:48;101324.94;;;13.54;78.51
54266;BME280;40836;39.770;2.714;2022-11-20T00:03:13;101340.19;;;13.64;78.72
54266;BME280;40836;39.770;2.714;2022-11-20T00:05:39;101345.91;;;13.62;78.41
54266;BME280;40836;39.770;2.714;2022-11-20T00:08:04;101316.28;;;13.52;78.88
54266;BME280;40836;39.770;2.714;2022-11-20T00:10:30;101338.81;;;13.66;78.80
54266;BME280;40836;39.770;2.714;2022-11-20T00:12:58;101343.41;;;13.66;78.88
54266;BME280;40836;39.770;2.714;2022-11-20T00:15:23;101342.59;;;13.65;78.97
54266;BME280;40836;39.770;2.714;2022-11-20T00:17:49;101337.69;;;13.67;78.77
54266;BME280;40836;39.770;2.714;2022-11-20T00:20:14;101343.72;;;13.64;78.75
54266;BME280;40836;39.770;2.714;2022-11-20T00:22:40;101312.47;;;13.53;79.20
54266;BME280;40836;39.770;2.714;2022-11-20T00:25:05;101338.16;;;13.69;79.27
54266;BME280;40836;39.770;2.714;2022-11-20T00:27:31;101328.44;;;13.68;78.99
54266;BME280;40836;39.770;2.714;2022-11-20T00:29:56;101334.06;;;13.72;78.74
54266;BME280;40836;39.770;2.714;2022-11-20T00:32:22;101339.59;;;13.67;79.15
54266;BME280;40836;39.770;2.714;2022-11-20T00:34:47;101342.13;;;13.63;79.64
54266;BME280;40836;39.770;2.714;2022-11-20T00:37:12;101347.41;;;13.68;79.34
54266;BME280;40836;39.770;2.714;2022-11-20T00:39:38;101337.38;;;13.69;78.92
54266;BME280;40836;39.770;2.714;2022-11-20T00:42:05;101350.25;;;13.63;78.98
54266;BME280;40836;39.770;2.714;2022-11-20T00:44:30;101348.41;;;13.45;79.91
54266;BME280;40836;39.770;2.714;2022-11-20T00:46:55;101339.81;;;13.57;79.83
54266;BME280;40836;39.770;2.714;2022-11-20T00:49:21;101340.47;;;13.62;79.10
54266;BME280;40836;39.770;2.714;2022-11-20T00:51:46;101328.44;;;13.54;78.75
54266;BME280;40836;39.770;2.714;2022-11-20T00:54:12;101347.81;;;13.62;78.82
54266;BME280;40836;39.770;2.714;2022-11-20T00:56:37;101351.63;;;13.61;78.96
54266;BME280;40836;39.770;2.714;2022-11-20T00:59:03;101353.75;;;13.64;79.45
54266;BME280;40836;39.770;2.714;2022-11-20T01:01:28;101346.69;;;13.63;79.35
54266;BME280;40836;39.770;2.714;2022-11-20T01:03:56;101358.66;;;13.62;79.83
54266;BME280;40836;39.770;2.714;2022-11-20T01:06:24;101348.63;;;13.62;79.66
54266;BME280;40836;39.770;2.714;2022-11-20T01:08:53;101330.66;;;13.52;79.83
54266;BME280;40836;39.770;2.714;2022-11-20T01:11:25;101357.66;;;13.58;79.69
54266;BME280;40836;39.770;2.714;2022-11-20T01:13:52;101356.25;;;13.60;79.69
54266;BME280;40836;39.770;2.714;2022-11-20T01:16:25;101352.44;;;13.61;79.47
54266;BME280;40836;39.770;2.714;2022-11-20T01:18:52;101350.53;;;13.62;79.86
54266;BME280;40836;39.770;2.714;2022-11-20T01:21:21;101348.94;;;13.61;79.30
54266;BME280;40836;39.770;2.714;2022-11-20T01:23:47;101351.84;;;13.64;78.90
54266;BME280;40836;39.770;2.714;2022-11-20T01:26:16;101356.75;;;13.62;78.95
54266;BME280;40836;39.770;2.714;2022-11-20T01:28:43;101337.78;;;13.48;79.03
54266;BME280;40836;39.770;2.714;2022-11-20T01:33:40;101355.16;;;13.61;79.07
54266;BME280;40836;39.770;2.714;2022-11-20T01:36:07;101366.00;;;13.61;79.30
54266;BME280;40836;39.770;2.714;2022-11-20T01:38:33;101331.44;;;13.39;79.48
54266;BME280;40836;39.770;2.714;2022-11-20T01:40:58;101346.59;;;13.40;79.70
54266;BME280;40836;39.770;2.714;2022-11-20T01:43:24;101358.84;;;13.51;79.81
54266;BME280;40836;39.770;2.714;2022-11-20T01:48:23;101368.28;;;13.54;79.60
54266;BME280;40836;39.770;2.714;2022-11-20T01:50:51;101356.16;;;13.51;79.53
54266;BME280;40836;39.770;2.714;2022-11-20T01:53:21;101363.69;;;13.54;79.76
54266;BME280;40836;39.770;2.714;2022-11-20T01:55:51;101368.91;;;13.51;80.02
54266;BME280;40836;39.770;2.714;2022-11-20T01:58:21;101358.34;;;13.36;79.98
54266;BME280;40836;39.770;2.714;2022-11-20T02:00:48;101370.28;;;13.48;79.80
54266;BME280;40836;39.770;2.714;2022-11-20T02:03:16;101376.81;;;13.47;79.81
54266;BME280;40836;39.770;2.714;2022-11-20T02:08:12;101361.75;;;13.41;80.13
54266;BME280;40836;39.770;2.714;2022-11-20T02:10:38;101386.53;;;13.48;80.19
54266;BME280;40836;39.770;2.714;2022-11-20T02:13:04;101378.09;;;13.50;80.18
54266;BME280;40836;39.770;2.714;2022-11-20T02:15:49;101380.81;;;13.50;80.16
54266;BME280;40836;39.770;2.714;2022-11-20T02:18:17;101383.25;;;13.51;80.63
54266;BME280;40836;39.770;2.714;2022-11-20T02:20:45;101379.22;;;13.49;80.73
54266;BME280;40836;39.770;2.714;2022-11-20T02:23:37;101388.66;;;13.51;80.58
54266;BME280;40836;39.770;2.714;2022-11-20T02:26:00;101393.16;;;13.42;80.90
54266;BME280;40836;39.770;2.714;2022-11-20T02:28:27;101392.28;;;13.47;80.34
54266;BME280;40836;39.770;2.714;2022-11-20T02:30:52;101393.28;;;13.51;80.26
54266;BME280;40836;39.770;2.714;2022-11-20T02:33:18;101394.69;;;13.48;80.33
54266;BME280;40836;39.770;2.714;2022-11-20T02:35:46;101378.59;;;13.38;80.43
54266;BME280;40836;39.770;2.714;2022-11-20T02:38:11;101394.06;;;13.51;80.25
54266;BME280;40836;39.770;2.714;2022-11-20T02:40:38;101399.69;;;13.55;80.33
54266;BME280;40836;39.770;2.714;2022-11-20T02:43:03;101393.16;;;13.56;80.03
54266;BME280;40836;39.770;2.714;2022-11-20T02:45:29;101395.28;;;13.59;80.09
54266;BME280;40836;39.770;2.714;2022-11-20T02:47:54;101397.72;;;13.61;79.81
54266;BME280;40836;39.770;2.714;2022-11-20T02:50:20;101396.31;;;13.63;79.99
54266;BME280;40836;39.770;2.714;2022-11-20T02:52:45;101381.34;;;13.52;79.91
54266;BME280;40836;39.770;2.714;2022-11-20T02:55:11;101388.06;;;13.68;79.64
54266;BME280;40836;39.770;2.714;2022-11-20T02:57:36;101395.19;;;13.64;79.86
54266;BME280;40836;39.770;2.714;2022-11-20T03:00:03;101405.84;;;13.61;79.57
54266;BME280;40836;39.770;2.714;2022-11-20T03:02:30;101399.41;;;13.57;80.35
54266;BME280;40836;39.770;2.714;2022-11-20T03:04:55;101400.91;;;13.63;80.01
54266;BME280;40836;39.770;2.714;2022-11-20T03:07:21;101407.25;;;13.58;80.13
54266;BME280;40836;39.770;2.714;2022-11-20T03:09:46;101402.94;;;13.57;80.32
54266;BME280;40836;39.770;2.714;2022-11-20T03:12:12;101394.81;;;13.57;80.05
54266;BME280;40836;39.770;2.714;2022-11-20T03:14:37;101398.31;;;13.58;80.34
54266;BME280;40836;39.770;2.714;2022-11-20T03:17:03;101357.53;;;13.35;80.14
54266;BME280;40836;39.770;2.714;2022-11-20T03:19:28;101392.47;;;13.50;80.59
54266;BME280;40836;39.770;2.714;2022-11-20T03:21:54;101408.75;;;13.50;80.35
54266;BME280;40836;39.770;2.714;2022-11-20T03:24:19;101411.72;;;13.49;80.34
54266;BME280;40836;39.770;2.714;2022-11-20T03:26:45;101411.44;;;13.50;80.82
54266;BME280;40836;39.770;2.714;2022-11-20T03:29:10;101414.16;;;13.50;80.70
54266;BME280;40836;39.770;2.714;2022-11-20T03:31:38;101401.28;;;13.42;80.80
54266;BME280;40836;39.770;2.714;2022-11-20T03:34:09;101401.81;;;13.44;80.31
54266;BME280;40836;39.770;2.714;2022-11-20T03:36:35;101413.03;;;13.38;80.72
54266;BME280;40836;39.770;2.714;2022-11-20T03:39:02;101409.72;;;13.41;80.05
54266;BME280;40836;39.770;2.714;2022-11-20T03:41:30;101417.66;;;13.37;80.26
54266;BME280;40836;39.770;2.714;2022-11-20T03:44:00;101411.19;;;13.33;79.90
54266;BME280;40836;39.770;2.714;2022-11-20T03:46:27;101394.88;;;13.19;80.33
54266;BME280;40836;39.770;2.714;2022-11-20T03:48:54;101420.34;;;13.37;80.68
54266;BME280;40836;39.770;2.714;2022-11-20T03:51:21;101421.75;;;13.35;80.51
54266;BME280;40836;39.770;2.714;2022-11-20T03:53:48;101421.22;;;13.33;80.48
54266;BME280;40836;39.770;2.714;2022-11-20T03:56:16;101417.41;;;13.34;80.75
54266;BME280;40836;39.770;2.714;2022-11-20T03:58:42;101418.53;;;13.33;80.36
54266;BME280;40836;39.770;2.714;2022-11-20T04:01:16;101436.69;;;13.32;80.41
54266;BME280;40836;39.770;2.714;2022-11-20T04:03:43;101437.28;;;13.29;80.73
54266;BME280;40836;39.770;2.714;2022-11-20T04:06:17;101438.88;;;13.30;80.55
54266;BME280;40836;39.770;2.714;2022-11-20T04:08:43;101435.94;;;13.26;80.07
54266;BME280;40836;39.770;2.714;2022-11-20T04:11:16;101439.97;;;13.29;80.01
54266;BME280;40836;39.770;2.714;2022-11-20T04:13:45;101442.16;;;13.27;80.14
54266;BME280;40836;39.770;2.714;2022-11-20T04:16:10;101440.03;;;13.24;80.53
54266;BME280;40836;39.770;2.714;2022-11-20T04:18:36;101441.13;;;13.23;80.14
54266;BME280;40836;39.770;2.714;2022-11-20T04:21:03;101446.00;;;13.26;80.21
54266;BME280;40836;39.770;2.714;2022-11-20T04:23:29;101440.63;;;13.21;80.63
54266;BME280;40836;39.770;2.714;2022-11-20T04:26:00;101447.66;;;13.22;80.67
54266;BME280;40836;39.770;2.714;2022-11-20T04:28:26;101450.84;;;13.24;80.54
54266;BME280;40836;39.770;2.714;2022-11-20T04:30:52;101450.59;;;13.25;80.96
54266;BME280;40836;39.770;2.714;2022-11-20T04:33:17;101451.53;;;13.16;81.46
54266;BME280;40836;39.770;2.714;2022-11-20T04:35:44;101453.88;;;13.22;81.03
54266;BME280;40836;39.770;2.714;2022-11-20T04:38:12;101458.72;;;13.25;81.10
54266;BME280;40836;39.770;2.714;2022-11-20T04:40:37;101451.44;;;13.21;81.22
54266;BME280;40836;39.770;2.714;2022-11-20T04:43:03;101469.81;;;13.24;81.55
54266;BME280;40836;39.770;2.714;2022-11-20T04:45:28;101459.25;;;13.27;81.43
54266;BME280;40836;39.770;2.714;2022-11-20T04:47:54;101461.84;;;13.33;80.96
54266;BME280;40836;39.770;2.714;2022-11-20T04:50:19;101458.28;;;13.37;80.87
54266;BME280;40836;39.770;2.714;2022-11-20T04:52:44;101449.22;;;13.28;80.87
54266;BME280;40836;39.770;2.714;2022-11-20T04:55:10;101480.66;;;13.43;80.97
54266;BME280;40836;39.770;2.714;2022-11-20T04:57:35;101481.44;;;13.43;80.70
54266;BME280;40836;39.770;2.714;2022-11-20T05:00:01;101485.78;;;13.44;80.35
54266;BME280;40836;39.770;2.714;2022-11-20T05:02:26;101475.03;;;13.39;80.58
54266;BME280;40836;39.770;2.714;2022-11-20T05:04:52;101476.22;;;13.33;80.66
54266;BME280;40836;39.770;2.714;2022-11-20T05:07:17;101488.78;;;13.43;80.16
54266;BME280;40836;39.770;2.714;2022-11-20T05:09:42;101467.50;;;13.36;80.19
54266;BME280;40836;39.770;2.714;2022-11-20T05:12:08;101490.31;;;13.49;80.31
54266;BME280;40836;39.770;2.714;2022-11-20T05:14:34;101490.53;;;13.52;79.98
54266;BME280;40836;39.770;2.714;2022-11-20T05:16:59;101497.56;;;13.53;79.67
54266;BME280;40836;39.770;2.714;2022-11-20T05:19:25;101499.69;;;13.57;79.48
54266;BME280;40836;39.770;2.714;2022-11-20T05:21:50;101501.28;;;13.58;79.38
54266;BME280;40836;39.770;2.714;2022-11-20T05:24:16;101516.22;;;13.55;80.11
54266;BME280;40836;39.770;2.714;2022-11-20T05:26:41;101494.31;;;13.38;80.01
54266;BME280;40836;39.770;2.714;2022-11-20T05:29:10;101510.88;;;13.50;79.64
54266;BME280;40836;39.770;2.714;2022-11-20T05:31:36;101514.69;;;13.49;79.18
54266;BME280;40836;39.770;2.714;2022-11-20T05:34:03;101502.13;;;13.39;78.54
54266;BME280;40836;39.770;2.714;2022-11-20T05:36:29;101520.03;;;13.54;78.96
54266;BME280;40836;39.770;2.714;2022-11-20T05:38:55;101520.63;;;13.51;79.12
54266;BME280;40836;39.770;2.714;2022-11-20T05:41:20;101525.97;;;13.56;78.81
54266;BME280;40836;39.770;2.714;2022-11-20T05:43:48;101525.16;;;13.56;78.55
54266;BME280;40836;39.770;2.714;2022-11-20T05:46:16;101532.22;;;13.57;78.27
54266;BME280;40836;39.770;2.714;2022-11-20T05:48:43;101529.19;;;13.58;78.28
54266;BME280;40836;39.770;2.714;2022-11-20T05:51:10;101528.38;;;13.58;77.90
54266;BME280;40836;39.770;2.714;2022-11-20T05:53:36;101527.00;;;13.60;77.46
54266;BME280;40836;39.770;2.714;2022-11-20T05:56:04;101540.53;;;13.60;77.44
54266;BME280;40836;39.770;2.714;2022-11-20T05:58:31;101538.13;;;13.59;77.03
54266;BME280;40836;39.770;2.714;2022-11-20T06:01:09;101548.97;;;13.59;76.49
54266;BME280;40836;39.770;2.714;2022-11-20T06:03:35;101551.97;;;13.57;76.05
54266;BME280;40836;39.770;2.714;2022-11-20T06:06:03;101547.44;;;13.52;76.25
54266;BME280;40836;39.770;2.714;2022-11-20T06:08:29;101545.22;;;13.54;76.33
54266;BME280;40836;39.770;2.714;2022-11-20T06:10:55;101543.31;;;13.55;76.18
54266;BME280;40836;39.770;2.714;2022-11-20T06:13:20;101526.00;;;13.37;76.24
54266;BME280;40836;39.770;2.714;2022-11-20T06:15:50;101547.16;;;13.54;75.95
54266;BME280;40836;39.770;2.714;2022-11-20T06:18:15;101549.91;;;13.49;76.25
54266;BME280;40836;39.770;2.714;2022-11-20T06:20:41;101554.31;;;13.45;76.42
54266;BME280;40836;39.770;2.714;2022-11-20T06:23:06;101562.97;;;13.47;76.78
54266;BME280;40836;39.770;2.714;2022-11-20T06:25:32;101562.38;;;13.50;77.18
54266;BME280;40836;39.770;2.714;2022-11-20T06:27:57;101567.50;;;13.51;77.07
54266;BME280;40836;39.770;2.714;2022-11-20T06:30:23;101567.78;;;13.50;77.01
54266;BME280;40836;39.770;2.714;2022-11-20T06:32:48;101565.91;;;13.50;76.99
54266;BME280;40836;39.770;2.714;2022-11-20T06:35:14;101570.81;;;13.48;77.08
54266;BME280;40836;39.770;2.714;2022-11-20T06:37:39;101568.88;;;13.49;77.11
54266;BME280;40836;39.770;2.714;2022-11-20T06:40:05;101569.41;;;13.51;77.17
54266;BME280;40836;39.770;2.714;2022-11-20T06:42:32;101548.34;;;13.29;77.22
54266;BME280;40836;39.770;2.714;2022-11-20T06:44:57;101581.13;;;13.46;77.32
54266;BME280;40836;39.770;2.714;2022-11-20T06:47:23;101583.81;;;13.46;77.17
54266;BME280;40836;39.770;2.714;2022-11-20T06:49:48;101583.34;;;13.44;77.02
54266;BME280;40836;39.770;2.714;2022-11-20T06:52:13;101587.44;;;13.42;77.14
54266;BME280;40836;39.770;2.714;2022-11-20T06:54:39;101585.88;;;13.36;77.27
54266;BME280;40836;39.770;2.714;2022-11-20T06:57:04;101596.13;;;13.39;77.11
54266;BME280;40836;39.770;2.714;2022-11-20T06:59:30;101589.34;;;13.41;77.04
54266;BME280;40836;39.770;2.714;2022-11-20T07:01:55;101587.59;;;13.32;77.45
54266;BME280;40836;39.770;2.714;2022-11-20T07:04:20;101596.28;;;13.28;77.24
54266;BME280;40836;39.770;2.714;2022-11-20T07:06:46;101602.66;;;13.38;77.23
54266;BME280;40836;39.770;2.714;2022-11-20T07:09:11;101587.84;;;13.30;76.83
54266;BME280;40836;39.770;2.714;2022-11-20T07:11:37;101609.69;;;13.39;76.82
54266;BME280;40836;39.770;2.714;2022-11-20T07:14:02;101607.50;;;13.41;77.37
54266;BME280;40836;39.770;2.714;2022-11-20T07:16:28;101599.88;;;13.43;76.62
54266;BME280;40836;39.770;2.714;2022-11-20T07:18:53;101608.72;;;13.48;75.86
54266;BME280;40836;39.770;2.714;2022-11-20T07:21:19;101590.13;;;13.42;76.29
54266;BME280;40836;39.770;2.714;2022-11-20T07:23:44;101615.69;;;13.54;76.14
54266;BME280;40836;39.770;2.714;2022-11-20T07:26:10;101618.31;;;13.60;76.21
54266;BME280;40836;39.770;2.714;2022-11-20T07:28:36;101621.25;;;13.63;75.66
54266;BME280;40836;39.770;2.714;2022-11-20T07:31:02;101617.13;;;13.66;75.41
54266;BME280;40836;39.770;2.714;2022-11-20T07:33:28;101620.38;;;13.68;75.58
54266;BME280;40836;39.770;2.714;2022-11-20T07:35:54;101596.63;;;13.60;76.20
54266;BME280;40836;39.770;2.714;2022-11-20T07:38:19;101612.97;;;13.73;77.01
54266;BME280;40836;39.770;2.714;2022-11-20T07:40:45;101618.59;;;13.77;77.01
54266;BME280;40836;39.770;2.714;2022-11-20T07:43:10;101580.75;;;13.53;76.82
54266;BME280;40836;39.770;2.714;2022-11-20T07:45:36;101611.66;;;13.71;76.99
54266;BME280;40836;39.770;2.714;2022-11-20T07:48:01;101606.81;;;13.68;77.04
54266;BME280;40836;39.770;2.714;2022-11-20T07:50:27;101639.72;;;13.80;76.97
54266;BME280;40836;39.770;2.714;2022-11-20T07:53:00;101634.56;;;13.78;77.38
54266;BME280;40836;39.770;2.714;2022-11-20T07:55:25;101599.22;;;13.51;77.19
54266;BME280;40836;39.770;2.714;2022-11-20T07:57:55;101645.94;;;13.81;76.13
54266;BME280;40836;39.770;2.714;2022-11-20T08:00:21;101648.84;;;13.84;75.46
54266;BME280;40836;39.770;2.714;2022-11-20T08:02:47;101650.44;;;13.85;76.47
54266;BME280;40836;39.770;2.714;2022-11-20T08:05:12;101655.59;;;13.87;76.13
54266;BME280;40836;39.770;2.714;2022-11-20T08:07:39;101661.28;;;13.85;75.66
54266;BME280;40836;39.770;2.714;2022-11-20T08:10:07;101662.34;;;13.89;75.21
54266;BME280;40836;39.770;2.714;2022-11-20T08:12:33;101654.47;;;13.88;76.00
54266;BME280;40836;39.770;2.714;2022-11-20T08:15:17;101670.59;;;13.98;75.96
54266;BME280;40836;39.770;2.714;2022-11-20T08:17:42;101636.69;;;13.82;75.95
54266;BME280;40836;39.770;2.714;2022-11-20T08:20:08;101653.03;;;13.95;75.98
54266;BME280;40836;39.770;2.714;2022-11-20T08:22:34;101668.53;;;14.09;76.77
54266;BME280;40836;39.770;2.714;2022-11-20T08:24:59;101647.59;;;13.95;76.53
54266;BME280;40836;39.770;2.714;2022-11-20T08:27:25;101679.09;;;14.10;76.50
54266;BME280;40836;39.770;2.714;2022-11-20T08:29:50;101686.41;;;14.10;75.92
54266;BME280;40836;39.770;2.714;2022-11-20T08:32:16;101684.72;;;14.14;76.29
54266;BME280;40836;39.770;2.714;2022-11-20T08:34:41;101691.69;;;14.20;75.86
54266;BME280;40836;39.770;2.714;2022-11-20T08:37:07;101682.94;;;14.23;75.11
54266;BME280;40836;39.770;2.714;2022-11-20T08:39:32;101697.53;;;14.27;75.20
54266;BME280;40836;39.770;2.714;2022-11-20T08:41:58;101691.22;;;14.32;76.45
54266;BME280;40836;39.770;2.714;2022-11-20T08:44:23;101696.53;;;14.37;76.09
54266;BME280;40836;39.770;2.714;2022-11-20T08:46:49;101698.19;;;14.38;75.94
54266;BME280;40836;39.770;2.714;2022-11-20T08:49:14;101685.88;;;14.27;75.69
54266;BME280;40836;39.770;2.714;2022-11-20T08:51:41;101703.50;;;14.43;76.28
54266;BME280;40836;39.770;2.714;2022-11-20T08:54:07;101712.38;;;14.48;76.82
54266;BME280;40836;39.770;2.714;2022-11-20T08:56:33;101706.06;;;14.53;76.35
54266;BME280;40836;39.770;2.714;2022-11-20T08:58:59;101710.09;;;14.56;76.01
54266;BME280;40836;39.770;2.714;2022-11-20T09:01:25;101715.94;;;14.63;76.00
54266;BME280;40836;39.770;2.714;2022-11-20T09:03:51;101708.19;;;14.56;75.90
54266;BME280;40836;39.770;2.714;2022-11-20T09:06:17;101719.03;;;14.56;75.71
54266;BME280;40836;39.770;2.714;2022-11-20T09:08:43;101720.56;;;14.62;76.01
54266;BME280;40836;39.770;2.714;2022-11-20T09:11:09;101727.84;;;14.67;76.15
54266;BME280;40836;39.770;2.714;2022-11-20T09:13:36;101723.94;;;14.73;76.60
54266;BME280;40836;39.770;2.714;2022-11-20T09:16:06;101726.63;;;14.73;75.53
54266;BME280;40836;39.770;2.714;2022-11-20T09:18:33;101729.84;;;14.75;74.60
54266;BME280;40836;39.770;2.714;2022-11-20T09:21:06;101730.25;;;14.82;74.31
54266;BME280;40836;39.770;2.714;2022-11-20T09:23:34;101733.47;;;14.84;72.91
54266;BME280;40836;39.770;2.714;2022-11-20T09:26:11;101741.09;;;14.82;71.13
54266;BME280;40836;39.770;2.714;2022-11-20T09:28:37;101751.69;;;14.84;69.18
54266;BME280;40836;39.770;2.714;2022-11-20T09:31:14;101747.38;;;14.83;69.31
54266;BME280;40836;39.770;2.714;2022-11-20T09:33:43;101752.28;;;14.81;67.94
54266;BME280;40836;39.770;2.714;2022-11-20T09:36:08;101765.19;;;14.89;66.94
54266;BME280;40836;39.770;2.714;2022-11-20T09:38:34;101768.78;;;14.84;65.50
54266;BME280;40836;39.770;2.714;2022-11-20T09:41:03;101764.47;;;14.97;65.46
54266;BME280;40836;39.770;2.714;2022-11-20T09:46:48;101762.28;;;15.13;64.31
54266;BME280;40836;39.770;2.714;2022-11-20T09:49:49;101776.78;;;15.22;64.58
54266;BME280;40836;39.770;2.714;2022-11-20T09:52:32;101765.72;;;15.19;63.82
54266;BME280;40836;39.770;2.714;2022-11-20T09:55:03;101748.09;;;15.16;64.67
54266;BME280;40836;39.770;2.714;2022-11-20T09:57:36;101752.41;;;15.31;66.17
54266;BME280;40836;39.770;2.714;2022-11-20T10:00:04;101762.91;;;15.37;65.38
54266;BME280;40836;39.770;2.714;2022-11-20T10:02:37;101769.34;;;15.42;63.67
54266;BME280;40836;39.770;2.714;2022-11-20T10:05:17;101767.03;;;15.35;62.18
54266;BME280;40836;39.770;2.714;2022-11-20T10:10:43;101772.84;;;15.42;61.13
54266;BME280;40836;39.770;2.714;2022-11-20T10:24:44;101763.97;;;15.50;61.30
54266;BME280;40836;39.770;2.714;2022-11-20T10:30:12;101770.25;;;15.51;59.70
54266;BME280;40836;39.770;2.714;2022-11-20T10:32:43;101782.91;;;15.55;58.89
54266;BME280;40836;39.770;2.714;2022-11-20T10:37:42;101782.13;;;15.69;61.92
54266;BME280;40836;39.770;2.714;2022-11-20T10:42:51;101783.91;;;15.59;59.63
54266;BME280;40836;39.770;2.714;2022-11-20T10:47:59;101782.41;;;15.81;59.46
54266;BME280;40836;39.770;2.714;2022-11-20T10:50:35;101786.72;;;15.82;59.05
54266;BME280;40836;39.770;2.714;2022-11-20T10:53:11;101787.44;;;15.88;59.25
54266;BME280;40836;39.770;2.714;2022-11-20T10:55:58;101779.88;;;15.84;59.07
54266;BME280;40836;39.770;2.714;2022-11-20T11:01:17;101793.16;;;16.00;59.18
54266;BME280;40836;39.770;2.714;2022-11-20T11:03:44;101789.63;;;15.99;59.37
54266;BME280;40836;39.770;2.714;2022-11-20T11:06:28;101785.28;;;15.98;59.36
54266;BME280;40836;39.770;2.714;2022-11-20T11:08:59;101783.59;;;16.02;59.05
54266;BME280;40836;39.770;2.714;2022-11-20T11:11:29;101796.28;;;15.93;58.86
54266;BME280;40836;39.770;2.714;2022-11-20T11:14:13;101795.56;;;16.01;59.08
54266;BME280;40836;39.770;2.714;2022-11-20T11:16:56;101775.00;;;15.95;59.67
54266;BME280;40836;39.770;2.714;2022-11-20T11:19:22;101764.56;;;15.89;59.00
54266;BME280;40836;39.770;2.714;2022-11-20T11:21:51;101772.88;;;16.06;59.89
54266;BME280;40836;39.770;2.714;2022-11-20T11:27:02;101791.22;;;16.00;59.89
54266;BME280;40836;39.770;2.714;2022-11-20T11:29:30;101790.19;;;16.10;59.85
54266;BME280;40836;39.770;2.714;2022-11-20T11:32:07;101796.81;;;16.18;59.11
54266;BME280;40836;39.770;2.714;2022-11-20T11:34:33;101801.88;;;16.10;59.48
54266;BME280;40836;39.770;2.714;2022-11-20T11:36:59;101790.09;;;16.15;59.62
54266;BME280;40836;39.770;2.714;2022-11-20T11:39:27;101793.28;;;16.17;59.70
54266;BME280;40836;39.770;2.714;2022-11-20T11:41:53;101789.66;;;16.22;58.93
54266;BME280;40836;39.770;2.714;2022-11-20T11:44:20;101783.28;;;16.26;59.18
54266;BME280;40836;39.770;2.714;2022-11-20T11:47:24;101783.16;;;16.09;58.96
54266;BME280;40836;39.770;2.714;2022-11-20T11:50:22;101799.94;;;16.25;59.28
54266;BME280;40836;39.770;2.714;2022-11-20T11:58:46;101798.22;;;16.29;59.07
54266;BME280;40836;39.770;2.714;2022-11-20T12:01:35;101806.22;;;16.12;59.05
54266;BME280;40836;39.770;2.714;2022-11-20T12:04:21;101806.09;;;16.17;59.29
54266;BME280;40836;39.770;2.714;2022-11-20T12:07:01;101784.16;;;16.13;58.48
54266;BME280;40836;39.770;2.714;2022-11-20T12:09:37;101775.00;;;16.09;58.02
54266;BME280;40836;39.770;2.714;2022-11-20T12:12:20;101772.50;;;16.21;57.62
54266;BME280;40836;39.770;2.714;2022-11-20T12:14:49;101772.22;;;16.23;57.57
54266;BME280;40836;39.770;2.714;2022-11-20T12:17:18;101769.75;;;16.13;57.90
54266;BME280;40836;39.770;2.714;2022-11-20T12:19:44;101770.84;;;16.12;57.33
54266;BME280;40836;39.770;2.714;2022-11-20T12:25:20;101783.91;;;16.23;57.93
54266;BME280;40836;39.770;2.714;2022-11-20T12:27:51;101769.59;;;16.18;57.08
54266;BME280;40836;39.770;2.714;2022-11-20T12:30:21;101757.72;;;16.14;57.39
54266;BME280;40836;39.770;2.714;2022-11-20T12:36:06;101766.91;;;16.40;57.35
54266;BME280;40836;39.770;2.714;2022-11-20T12:38:51;101760.03;;;16.43;57.26
54266;BME280;40836;39.770;2.714;2022-11-20T12:41:58;101760.41;;;16.27;57.52
54266;BME280;40836;39.770;2.714;2022-11-20T12:45:06;101748.78;;;16.36;58.12
54266;BME280;40836;39.770;2.714;2022-11-20T12:56:08;101703.16;;;16.64;57.52
54266;BME280;40836;39.770;2.714;2022-11-20T12:58:58;101707.66;;;16.68;57.72
54266;BME280;40836;39.770;2.714;2022-11-20T13:07:19;101721.53;;;16.58;57.38
54266;BME280;40836;39.770;2.714;2022-11-20T13:09:50;101724.78;;;16.69;57.36
54266;BME280;40836;39.770;2.714;2022-11-20T13:17:52;101732.44;;;16.58;56.86
54266;BME280;40836;39.770;2.714;2022-11-20T13:20:19;101724.69;;;16.51;57.01
54266;BME280;40836;39.770;2.714;2022-11-20T13:22:56;101730.44;;;16.50;56.30
54266;BME280;40836;39.770;2.714;2022-11-20T13:25:33;101731.31;;;16.59;57.48
54266;BME280;40836;39.770;2.714;2022-11-20T13:30:50;101737.97;;;16.44;57.52
54266;BME280;40836;39.770;2.714;2022-11-20T13:33:29;101747.41;;;16.47;55.91
54266;BME280;40836;39.770;2.714;2022-11-20T13:38:44;101755.13;;;16.53;57.43
54266;BME280;40836;39.770;2.714;2022-11-20T13:41:11;101745.06;;;16.54;57.00
54266;BME280;40836;39.770;2.714;2022-11-20T13:46:50;101747.53;;;16.42;56.63
54266;BME280;40836;39.770;2.714;2022-11-20T13:49:37;101747.38;;;16.38;57.09
54266;BME280;40836;39.770;2.714;2022-11-20T13:55:46;101739.94;;;16.30;56.96
54266;BME280;40836;39.770;2.714;2022-11-20T14:01:00;101718.41;;;16.20;55.46
54266;BME280;40836;39.770;2.714;2022-11-20T14:03:29;101737.75;;;16.41;56.84
54266;BME280;40836;39.770;2.714;2022-11-20T14:06:04;101726.03;;;16.31;55.98
54266;BME280;40836;39.770;2.714;2022-11-20T14:08:40;101733.13;;;16.41;56.39
54266;BME280;40836;39.770;2.714;2022-11-20T14:11:17;101724.41;;;16.30;54.76
54266;BME280;40836;39.770;2.714;2022-11-20T14:16:40;101730.34;;;16.10;55.56
54266;BME280;40836;39.770;2.714;2022-11-20T14:24:13;101726.13;;;16.26;55.51
54266;BME280;40836;39.770;2.714;2022-11-20T14:26:45;101722.34;;;16.36;56.04
54266;BME280;40836;39.770;2.714;2022-11-20T14:29:19;101721.56;;;16.36;56.17
54266;BME280;40836;39.770;2.714;2022-11-20T14:31:46;101726.31;;;16.30;56.96
54266;BME280;40836;39.770;2.714;2022-11-20T14:34:37;101729.28;;;16.42;56.90